Terminal Aerodrome Forecast
Issued by NWS Twin Cities, MN

Home | Current Version | Previous Version | Graphics & Text | Print | Product List | Glossary On
Versions: 1 2 3 4 5 6 7 8 9 10 11 12 13 14 15 16 17 18 19 20 21 22
000
FTUS43 KMPX 241100
TAFEAU
TAF
KEAU 241122Z 2412/2512 17005KT 6SM BR OVC003
     FM241300 16006KT 6SM BR BKN006
     FM241500 18006KT P6SM SCT009 BKN015
     FM242100 20009KT P6SM SCT020 BKN030
     FM250000 20005KT P6SM SCT035 BKN250=

USA.gov is the U.S. government's official web portal to all federal, state and local government web resources and services.